Springtown, Missouri
Current Conditions -  °F | °C
As of 2:15 PM on Sunday 23 Nov 2014 (Local Time) from KFAM Reporting Station
Overcast Overcast  
Wind Chill: 55°   Ceiling: 600
Heat Index: 55°   Visibility: 10mi
Dew Point: 54°   Wind: 7mph
Humidity: 94%   Direction: 100°E
Pressure: 29.4"   Gusts: NA
Location:  37.9132°N, 90.7°W
Report Text: KFAM 232015Z AUTO 10006KT 10SM OVC006 13/12 A2940 RMK AO1 P0001
Loading
Personal Weather Stations






























Interactive Weather Map New forecast layout! Learn more

10-Day Weather Forecast

Advertisements
Track Severe Weather on mobile